Terminal Aerodrome Forecast
Issued by NWS Omaha/Valley, NE

Home | Current Version | Previous Version | Graphics & Text | Print | Product List | Glossary On
Versions: 1 2 3 4 5 6 7 8 9 10 11 12 13 14 15 16 17 18 19 20
000
FTUS43 KOAX 231144 AAA
TAFOFK
TAF AMD
KOFK 231144Z 2312/2412 03015KT P6SM OVC008
     FM231800 05015G24KT P6SM -RA OVC008
     FM240000 03018KT 2SM -RASN OVC005
     FM240400 01018G26KT 1/2SM SN OVC002=

USA.gov is the U.S. government's official web portal to all federal, state and local government web resources and services.